sensor_id;sensor_type;location;lat;lon;timestamp;temperature;humidity
34099;DHT22;20374;49.474;10.944;2022-12-20T00:02:17;0.70;99.90
34099;DHT22;20374;49.474;10.944;2022-12-20T00:04:43;0.80;99.90
34099;DHT22;20374;49.474;10.944;2022-12-20T00:07:09;0.80;99.90
34099;DHT22;20374;49.474;10.944;2022-12-20T00:09:35;0.80;99.90
34099;DHT22;20374;49.474;10.944;2022-12-20T00:12:00;0.80;99.90
34099;DHT22;20374;49.474;10.944;2022-12-20T00:14:26;0.90;99.90
34099;DHT22;20374;49.474;10.944;2022-12-20T00:16:52;0.90;99.90
34099;DHT22;20374;49.474;10.944;2022-12-20T00:19:18;0.80;99.90
34099;DHT22;20374;49.474;10.944;2022-12-20T00:21:44;0.80;99.90
34099;DHT22;20374;49.474;10.944;2022-12-20T00:24:10;0.80;99.90
34099;DHT22;20374;49.474;10.944;2022-12-20T00:26:36;0.80;99.90
34099;DHT22;20374;49.474;10.944;2022-12-20T00:29:03;0.80;99.90
34099;DHT22;20374;49.474;10.944;2022-12-20T00:31:30;0.80;99.90
34099;DHT22;20374;49.474;10.944;2022-12-20T00:33:58;0.80;99.90
34099;DHT22;20374;49.474;10.944;2022-12-20T00:36:25;0.80;99.90
34099;DHT22;20374;49.474;10.944;2022-12-20T00:38:53;0.90;99.90
34099;DHT22;20374;49.474;10.944;2022-12-20T00:41:25;0.90;99.90
34099;DHT22;20374;49.474;10.944;2022-12-20T00:43:51;0.90;99.90
34099;DHT22;20374;49.474;10.944;2022-12-20T00:46:18;0.90;99.90
34099;DHT22;20374;49.474;10.944;2022-12-20T00:48:45;0.90;99.90
34099;DHT22;20374;49.474;10.944;2022-12-20T00:51:14;0.90;99.90
34099;DHT22;20374;49.474;10.944;2022-12-20T00:53:41;0.90;99.90
34099;DHT22;20374;49.474;10.944;2022-12-20T00:56:08;0.90;99.90
34099;DHT22;20374;49.474;10.944;2022-12-20T00:58:36;0.90;99.90
34099;DHT22;20374;49.474;10.944;2022-12-20T01:01:04;1.00;99.90
34099;DHT22;20374;49.474;10.944;2022-12-20T01:03:30;1.00;99.90
34099;DHT22;20374;49.474;10.944;2022-12-20T01:05:59;1.00;99.90
34099;DHT22;20374;49.474;10.944;2022-12-20T01:08:26;1.00;99.90
34099;DHT22;20374;49.474;10.944;2022-12-20T01:11:08;1.00;99.90
34099;DHT22;20374;49.474;10.944;2022-12-20T01:13:37;0.90;99.90
34099;DHT22;20374;49.474;10.944;2022-12-20T01:16:28;1.00;99.90
34099;DHT22;20374;49.474;10.944;2022-12-20T01:18:54;1.00;99.90
34099;DHT22;20374;49.474;10.944;2022-12-20T01:21:22;1.00;99.90
34099;DHT22;20374;49.474;10.944;2022-12-20T01:23:49;1.00;99.90
34099;DHT22;20374;49.474;10.944;2022-12-20T01:26:18;1.00;99.90
34099;DHT22;20374;49.474;10.944;2022-12-20T01:28:46;1.00;99.90
34099;DHT22;20374;49.474;10.944;2022-12-20T01:31:16;0.90;99.90
34099;DHT22;20374;49.474;10.944;2022-12-20T01:33:43;0.90;99.90
34099;DHT22;20374;49.474;10.944;2022-12-20T01:36:22;0.80;99.90
34099;DHT22;20374;49.474;10.944;2022-12-20T01:38:50;0.80;99.90
34099;DHT22;20374;49.474;10.944;2022-12-20T01:41:18;0.80;99.90
34099;DHT22;20374;49.474;10.944;2022-12-20T01:46:22;0.80;99.90
34099;DHT22;20374;49.474;10.944;2022-12-20T01:48:53;0.80;99.90
34099;DHT22;20374;49.474;10.944;2022-12-20T01:51:20;0.80;99.90
34099;DHT22;20374;49.474;10.944;2022-12-20T01:53:51;0.80;99.90
34099;DHT22;20374;49.474;10.944;2022-12-20T01:56:19;0.70;99.90
34099;DHT22;20374;49.474;10.944;2022-12-20T01:58:47;0.70;99.90
34099;DHT22;20374;49.474;10.944;2022-12-20T02:01:14;0.70;99.90
34099;DHT22;20374;49.474;10.944;2022-12-20T02:03:41;0.70;99.90
34099;DHT22;20374;49.474;10.944;2022-12-20T02:06:20;0.70;99.90
34099;DHT22;20374;49.474;10.944;2022-12-20T02:08:48;0.70;99.90
34099;DHT22;20374;49.474;10.944;2022-12-20T02:16:48;0.70;99.90
34099;DHT22;20374;49.474;10.944;2022-12-20T02:30:38;0.80;99.90
34099;DHT22;20374;49.474;10.944;2022-12-20T02:33:11;0.80;99.90
34099;DHT22;20374;49.474;10.944;2022-12-20T02:35:39;0.80;99.90
34099;DHT22;20374;49.474;10.944;2022-12-20T02:38:33;0.80;99.90
34099;DHT22;20374;49.474;10.944;2022-12-20T02:41:06;0.80;99.90
34099;DHT22;20374;49.474;10.944;2022-12-20T02:43:35;0.70;99.90
34099;DHT22;20374;49.474;10.944;2022-12-20T02:46:22;0.80;99.90
34099;DHT22;20374;49.474;10.944;2022-12-20T02:48:51;0.80;99.90
34099;DHT22;20374;49.474;10.944;2022-12-20T02:51:19;0.80;99.90
34099;DHT22;20374;49.474;10.944;2022-12-20T02:53:46;0.80;99.90
34099;DHT22;20374;49.474;10.944;2022-12-20T02:57:02;0.70;99.90
34099;DHT22;20374;49.474;10.944;2022-12-20T02:59:38;0.80;99.90
34099;DHT22;20374;49.474;10.944;2022-12-20T03:02:06;0.80;99.90
34099;DHT22;20374;49.474;10.944;2022-12-20T03:04:37;0.80;99.90
34099;DHT22;20374;49.474;10.944;2022-12-20T03:09:31;0.80;99.90
34099;DHT22;20374;49.474;10.944;2022-12-20T03:11:58;0.70;99.90
34099;DHT22;20374;49.474;10.944;2022-12-20T03:14:24;0.80;99.90
34099;DHT22;20374;49.474;10.944;2022-12-20T03:16:52;0.80;99.90
34099;DHT22;20374;49.474;10.944;2022-12-20T03:19:18;0.80;99.90
34099;DHT22;20374;49.474;10.944;2022-12-20T03:21:44;0.80;99.90
34099;DHT22;20374;49.474;10.944;2022-12-20T03:24:12;0.80;99.90
34099;DHT22;20374;49.474;10.944;2022-12-20T03:26:39;0.80;99.90
34099;DHT22;20374;49.474;10.944;2022-12-20T03:29:05;0.80;99.90
34099;DHT22;20374;49.474;10.944;2022-12-20T03:31:32;0.80;99.90
34099;DHT22;20374;49.474;10.944;2022-12-20T03:33:58;0.90;99.90
34099;DHT22;20374;49.474;10.944;2022-12-20T03:36:24;0.90;99.90
34099;DHT22;20374;49.474;10.944;2022-12-20T03:38:54;0.90;99.90
34099;DHT22;20374;49.474;10.944;2022-12-20T03:41:23;0.90;99.90
34099;DHT22;20374;49.474;10.944;2022-12-20T03:43:49;0.90;99.90
34099;DHT22;20374;49.474;10.944;2022-12-20T03:46:16;0.90;99.90
34099;DHT22;20374;49.474;10.944;2022-12-20T03:48:42;0.90;99.90
34099;DHT22;20374;49.474;10.944;2022-12-20T03:51:09;0.90;99.90
34099;DHT22;20374;49.474;10.944;2022-12-20T03:53:35;0.90;99.90
34099;DHT22;20374;49.474;10.944;2022-12-20T03:56:01;0.90;99.90
34099;DHT22;20374;49.474;10.944;2022-12-20T03:58:27;0.90;99.90
34099;DHT22;20374;49.474;10.944;2022-12-20T04:00:53;0.90;99.90
34099;DHT22;20374;49.474;10.944;2022-12-20T04:03:39;0.90;99.90
34099;DHT22;20374;49.474;10.944;2022-12-20T04:06:05;0.90;99.90
34099;DHT22;20374;49.474;10.944;2022-12-20T04:08:31;0.90;99.90
34099;DHT22;20374;49.474;10.944;2022-12-20T04:10:58;0.90;99.90
34099;DHT22;20374;49.474;10.944;2022-12-20T04:14:00;0.90;99.90
34099;DHT22;20374;49.474;10.944;2022-12-20T04:16:28;0.90;99.90
34099;DHT22;20374;49.474;10.944;2022-12-20T04:18:54;0.80;99.90
34099;DHT22;20374;49.474;10.944;2022-12-20T04:21:27;0.90;99.90
34099;DHT22;20374;49.474;10.944;2022-12-20T04:23:56;0.90;99.90
34099;DHT22;20374;49.474;10.944;2022-12-20T04:26:28;0.90;99.90
34099;DHT22;20374;49.474;10.944;2022-12-20T04:28:57;0.90;99.90
34099;DHT22;20374;49.474;10.944;2022-12-20T04:31:23;0.80;99.90
34099;DHT22;20374;49.474;10.944;2022-12-20T04:33:49;0.90;99.90
34099;DHT22;20374;49.474;10.944;2022-12-20T04:36:15;0.80;99.90
34099;DHT22;20374;49.474;10.944;2022-12-20T04:38:42;0.80;99.90
34099;DHT22;20374;49.474;10.944;2022-12-20T04:41:08;0.80;99.90
34099;DHT22;20374;49.474;10.944;2022-12-20T04:43:44;0.80;99.90
34099;DHT22;20374;49.474;10.944;2022-12-20T04:46:11;0.80;99.90
34099;DHT22;20374;49.474;10.944;2022-12-20T04:48:37;0.90;99.90
34099;DHT22;20374;49.474;10.944;2022-12-20T04:51:06;0.90;99.90
34099;DHT22;20374;49.474;10.944;2022-12-20T04:53:31;0.90;99.90
34099;DHT22;20374;49.474;10.944;2022-12-20T04:56:27;0.90;99.90
34099;DHT22;20374;49.474;10.944;2022-12-20T04:58:57;0.90;99.90
34099;DHT22;20374;49.474;10.944;2022-12-20T05:01:25;0.90;99.90
34099;DHT22;20374;49.474;10.944;2022-12-20T05:03:52;0.90;99.90
34099;DHT22;20374;49.474;10.944;2022-12-20T05:06:18;0.90;99.90
34099;DHT22;20374;49.474;10.944;2022-12-20T05:08:46;0.90;99.90
34099;DHT22;20374;49.474;10.944;2022-12-20T05:11:12;0.90;99.90
34099;DHT22;20374;49.474;10.944;2022-12-20T05:13:39;0.90;99.90
34099;DHT22;20374;49.474;10.944;2022-12-20T05:16:06;0.90;99.90
34099;DHT22;20374;49.474;10.944;2022-12-20T05:18:34;0.80;99.90
34099;DHT22;20374;49.474;10.944;2022-12-20T05:21:03;0.80;99.90
34099;DHT22;20374;49.474;10.944;2022-12-20T05:23:50;0.80;99.90
34099;DHT22;20374;49.474;10.944;2022-12-20T05:27:01;0.80;99.90
34099;DHT22;20374;49.474;10.944;2022-12-20T05:29:28;0.80;99.90
34099;DHT22;20374;49.474;10.944;2022-12-20T05:31:59;0.80;99.90
34099;DHT22;20374;49.474;10.944;2022-12-20T05:34:26;0.70;99.90
34099;DHT22;20374;49.474;10.944;2022-12-20T05:36:54;0.70;99.90
34099;DHT22;20374;49.474;10.944;2022-12-20T05:39:22;0.80;99.90
34099;DHT22;20374;49.474;10.944;2022-12-20T05:41:51;0.80;99.90
34099;DHT22;20374;49.474;10.944;2022-12-20T05:44:20;0.80;99.90
34099;DHT22;20374;49.474;10.944;2022-12-20T05:46:49;0.80;99.90
34099;DHT22;20374;49.474;10.944;2022-12-20T05:49:20;0.80;99.90
34099;DHT22;20374;49.474;10.944;2022-12-20T05:51:47;0.80;99.90
34099;DHT22;20374;49.474;10.944;2022-12-20T05:54:22;0.90;99.90
34099;DHT22;20374;49.474;10.944;2022-12-20T05:57:05;0.90;99.90
34099;DHT22;20374;49.474;10.944;2022-12-20T05:59:35;1.00;99.90
34099;DHT22;20374;49.474;10.944;2022-12-20T06:02:03;1.00;99.90
34099;DHT22;20374;49.474;10.944;2022-12-20T06:04:32;1.00;99.90
34099;DHT22;20374;49.474;10.944;2022-12-20T06:06:59;1.00;99.90
34099;DHT22;20374;49.474;10.944;2022-12-20T06:09:25;1.00;99.90
34099;DHT22;20374;49.474;10.944;2022-12-20T06:11:57;1.00;99.90
34099;DHT22;20374;49.474;10.944;2022-12-20T06:14:24;1.10;99.90
34099;DHT22;20374;49.474;10.944;2022-12-20T06:16:52;1.10;99.90
34099;DHT22;20374;49.474;10.944;2022-12-20T06:19:18;1.00;99.90
34099;DHT22;20374;49.474;10.944;2022-12-20T06:21:45;1.00;99.90
34099;DHT22;20374;49.474;10.944;2022-12-20T06:24:14;1.10;99.90
34099;DHT22;20374;49.474;10.944;2022-12-20T06:26:43;1.20;99.90
34099;DHT22;20374;49.474;10.944;2022-12-20T06:29:11;1.20;99.90
34099;DHT22;20374;49.474;10.944;2022-12-20T06:31:50;1.20;99.90
34099;DHT22;20374;49.474;10.944;2022-12-20T06:34:16;1.20;99.90
34099;DHT22;20374;49.474;10.944;2022-12-20T06:36:43;1.10;99.90
34099;DHT22;20374;49.474;10.944;2022-12-20T06:39:15;1.20;99.90
34099;DHT22;20374;49.474;10.944;2022-12-20T06:41:53;1.10;99.90
34099;DHT22;20374;49.474;10.944;2022-12-20T06:44:19;1.10;99.90
34099;DHT22;20374;49.474;10.944;2022-12-20T06:46:45;1.10;99.90
34099;DHT22;20374;49.474;10.944;2022-12-20T06:49:11;1.10;99.90
34099;DHT22;20374;49.474;10.944;2022-12-20T06:51:37;1.10;99.90
34099;DHT22;20374;49.474;10.944;2022-12-20T06:54:04;1.10;99.90
34099;DHT22;20374;49.474;10.944;2022-12-20T06:56:33;1.10;99.90
34099;DHT22;20374;49.474;10.944;2022-12-20T06:58:59;1.10;99.90
34099;DHT22;20374;49.474;10.944;2022-12-20T07:01:25;1.10;99.90
34099;DHT22;20374;49.474;10.944;2022-12-20T07:03:51;1.20;99.90
34099;DHT22;20374;49.474;10.944;2022-12-20T07:06:16;1.20;99.90
34099;DHT22;20374;49.474;10.944;2022-12-20T07:08:42;1.20;99.90
34099;DHT22;20374;49.474;10.944;2022-12-20T07:11:09;1.20;99.90
34099;DHT22;20374;49.474;10.944;2022-12-20T07:13:35;1.30;99.90
34099;DHT22;20374;49.474;10.944;2022-12-20T07:16:01;1.20;99.90
34099;DHT22;20374;49.474;10.944;2022-12-20T07:18:28;1.20;99.90
34099;DHT22;20374;49.474;10.944;2022-12-20T07:20:57;1.30;99.90
34099;DHT22;20374;49.474;10.944;2022-12-20T07:23:23;1.30;99.90
34099;DHT22;20374;49.474;10.944;2022-12-20T07:25:57;1.30;99.90
34099;DHT22;20374;49.474;10.944;2022-12-20T07:28:24;1.30;99.90
34099;DHT22;20374;49.474;10.944;2022-12-20T07:30:51;1.30;99.90
34099;DHT22;20374;49.474;10.944;2022-12-20T07:33:17;1.30;99.90
34099;DHT22;20374;49.474;10.944;2022-12-20T07:35:44;1.30;99.90
34099;DHT22;20374;49.474;10.944;2022-12-20T07:38:14;1.30;99.90
34099;DHT22;20374;49.474;10.944;2022-12-20T07:40:42;1.40;99.90
34099;DHT22;20374;49.474;10.944;2022-12-20T07:43:09;1.40;99.90
34099;DHT22;20374;49.474;10.944;2022-12-20T07:45:35;1.40;99.90
34099;DHT22;20374;49.474;10.944;2022-12-20T07:48:03;1.40;99.90
34099;DHT22;20374;49.474;10.944;2022-12-20T07:50:30;1.40;99.90
34099;DHT22;20374;49.474;10.944;2022-12-20T07:52:57;1.40;99.90
34099;DHT22;20374;49.474;10.944;2022-12-20T07:55:23;1.40;99.90
34099;DHT22;20374;49.474;10.944;2022-12-20T07:57:56;1.50;99.90
34099;DHT22;20374;49.474;10.944;2022-12-20T08:00:26;1.50;99.90
34099;DHT22;20374;49.474;10.944;2022-12-20T08:03:05;1.50;99.90
34099;DHT22;20374;49.474;10.944;2022-12-20T08:05:33;1.50;99.90
34099;DHT22;20374;49.474;10.944;2022-12-20T08:08:00;1.50;99.90
34099;DHT22;20374;49.474;10.944;2022-12-20T08:10:27;1.60;99.90
34099;DHT22;20374;49.474;10.944;2022-12-20T08:12:53;1.60;99.90
34099;DHT22;20374;49.474;10.944;2022-12-20T08:15:19;1.50;99.90
34099;DHT22;20374;49.474;10.944;2022-12-20T08:17:48;1.60;99.90
34099;DHT22;20374;49.474;10.944;2022-12-20T08:20:14;1.60;99.90
34099;DHT22;20374;49.474;10.944;2022-12-20T08:22:40;1.60;99.90
34099;DHT22;20374;49.474;10.944;2022-12-20T08:25:06;1.60;99.90
34099;DHT22;20374;49.474;10.944;2022-12-20T08:27:32;1.70;99.90
34099;DHT22;20374;49.474;10.944;2022-12-20T08:29:58;1.60;99.90
34099;DHT22;20374;49.474;10.944;2022-12-20T08:32:25;1.70;99.90
34099;DHT22;20374;49.474;10.944;2022-12-20T08:34:51;1.80;99.90
34099;DHT22;20374;49.474;10.944;2022-12-20T08:37:18;1.80;99.90
34099;DHT22;20374;49.474;10.944;2022-12-20T08:39:44;1.80;99.90
34099;DHT22;20374;49.474;10.944;2022-12-20T08:42:10;1.90;99.90
34099;DHT22;20374;49.474;10.944;2022-12-20T08:44:36;1.90;99.90
34099;DHT22;20374;49.474;10.944;2022-12-20T08:47:01;1.90;99.90
34099;DHT22;20374;49.474;10.944;2022-12-20T08:49:27;1.90;99.90
34099;DHT22;20374;49.474;10.944;2022-12-20T08:51:53;2.00;99.90
34099;DHT22;20374;49.474;10.944;2022-12-20T08:54:19;2.00;99.90
34099;DHT22;20374;49.474;10.944;2022-12-20T08:56:45;2.00;99.90
34099;DHT22;20374;49.474;10.944;2022-12-20T08:59:11;1.90;99.90
34099;DHT22;20374;49.474;10.944;2022-12-20T09:01:37;2.00;99.90
34099;DHT22;20374;49.474;10.944;2022-12-20T09:04:03;2.00;99.90
34099;DHT22;20374;49.474;10.944;2022-12-20T09:06:29;2.10;99.90
34099;DHT22;20374;49.474;10.944;2022-12-20T09:08:55;2.10;99.90
34099;DHT22;20374;49.474;10.944;2022-12-20T09:11:23;2.20;99.90
34099;DHT22;20374;49.474;10.944;2022-12-20T09:13:51;2.30;99.90
34099;DHT22;20374;49.474;10.944;2022-12-20T09:16:20;2.30;99.90
34099;DHT22;20374;49.474;10.944;2022-12-20T09:18:50;2.40;99.90
34099;DHT22;20374;49.474;10.944;2022-12-20T09:21:17;2.40;99.90
34099;DHT22;20374;49.474;10.944;2022-12-20T09:23:43;2.40;99.90
34099;DHT22;20374;49.474;10.944;2022-12-20T09:26:13;2.40;99.90
34099;DHT22;20374;49.474;10.944;2022-12-20T09:28:40;2.40;99.90
34099;DHT22;20374;49.474;10.944;2022-12-20T09:31:09;2.40;99.90
34099;DHT22;20374;49.474;10.944;2022-12-20T09:33:36;2.40;99.90
34099;DHT22;20374;49.474;10.944;2022-12-20T09:36:02;2.40;99.90
34099;DHT22;20374;49.474;10.944;2022-12-20T09:38:29;2.40;99.90
34099;DHT22;20374;49.474;10.944;2022-12-20T09:41:05;2.40;99.90
34099;DHT22;20374;49.474;10.944;2022-12-20T09:43:32;2.50;99.90
34099;DHT22;20374;49.474;10.944;2022-12-20T09:46:02;2.50;99.90
34099;DHT22;20374;49.474;10.944;2022-12-20T09:48:31;2.50;99.90
34099;DHT22;20374;49.474;10.944;2022-12-20T09:54:05;2.50;99.90
34099;DHT22;20374;49.474;10.944;2022-12-20T09:56:35;2.40;99.90
34099;DHT22;20374;49.474;10.944;2022-12-20T09:59:05;2.50;99.90
34099;DHT22;20374;49.474;10.944;2022-12-20T10:01:33;2.40;99.90
34099;DHT22;20374;49.474;10.944;2022-12-20T10:04:03;2.40;99.90
34099;DHT22;20374;49.474;10.944;2022-12-20T10:09:17;2.40;99.90
34099;DHT22;20374;49.474;10.944;2022-12-20T10:25:54;2.70;99.90
34099;DHT22;20374;49.474;10.944;2022-12-20T10:28:30;2.70;99.90
34099;DHT22;20374;49.474;10.944;2022-12-20T10:31:04;2.80;99.90
34099;DHT22;20374;49.474;10.944;2022-12-20T10:33:31;2.80;99.90
34099;DHT22;20374;49.474;10.944;2022-12-20T10:36:26;2.90;99.90
34099;DHT22;20374;49.474;10.944;2022-12-20T10:38:57;3.00;99.90
34099;DHT22;20374;49.474;10.944;2022-12-20T10:41:29;3.00;99.90
34099;DHT22;20374;49.474;10.944;2022-12-20T10:44:02;3.10;99.90
34099;DHT22;20374;49.474;10.944;2022-12-20T10:46:56;3.10;99.90
34099;DHT22;20374;49.474;10.944;2022-12-20T10:49:27;3.10;99.90
34099;DHT22;20374;49.474;10.944;2022-12-20T10:51:55;3.20;99.90
34099;DHT22;20374;49.474;10.944;2022-12-20T10:54:30;3.20;99.90
34099;DHT22;20374;49.474;10.944;2022-12-20T10:57:01;3.20;99.90
34099;DHT22;20374;49.474;10.944;2022-12-20T10:59:29;3.20;99.90
34099;DHT22;20374;49.474;10.944;2022-12-20T11:01:56;3.20;99.90
34099;DHT22;20374;49.474;10.944;2022-12-20T11:04:32;3.20;99.90
34099;DHT22;20374;49.474;10.944;2022-12-20T11:07:01;3.30;99.90
34099;DHT22;20374;49.474;10.944;2022-12-20T11:12:15;3.50;99.90
34099;DHT22;20374;49.474;10.944;2022-12-20T11:14:45;3.60;99.90
34099;DHT22;20374;49.474;10.944;2022-12-20T11:17:26;3.70;99.90
34099;DHT22;20374;49.474;10.944;2022-12-20T11:20:00;3.80;99.90
34099;DHT22;20374;49.474;10.944;2022-12-20T11:28:29;3.90;99.90
34099;DHT22;20374;49.474;10.944;2022-12-20T11:47:00;3.80;99.90
34099;DHT22;20374;49.474;10.944;2022-12-20T11:49:39;3.80;99.90
34099;DHT22;20374;49.474;10.944;2022-12-20T11:55:19;3.80;99.90
34099;DHT22;20374;49.474;10.944;2022-12-20T12:00:22;3.80;99.90
34099;DHT22;20374;49.474;10.944;2022-12-20T12:03:09;3.80;99.90
34099;DHT22;20374;49.474;10.944;2022-12-20T12:05:50;3.70;99.90
34099;DHT22;20374;49.474;10.944;2022-12-20T12:08:40;3.70;99.90
34099;DHT22;20374;49.474;10.944;2022-12-20T12:11:27;3.70;99.90
34099;DHT22;20374;49.474;10.944;2022-12-20T12:13:55;3.70;99.90
34099;DHT22;20374;49.474;10.944;2022-12-20T12:16:27;4.00;99.90
34099;DHT22;20374;49.474;10.944;2022-12-20T12:18:58;4.00;99.90
34099;DHT22;20374;49.474;10.944;2022-12-20T12:21:27;4.00;99.90
34099;DHT22;20374;49.474;10.944;2022-12-20T12:24:22;4.20;99.90
34099;DHT22;20374;49.474;10.944;2022-12-20T12:26:50;4.30;99.90
34099;DHT22;20374;49.474;10.944;2022-12-20T12:29:17;4.40;99.90
34099;DHT22;20374;49.474;10.944;2022-12-20T12:32:06;4.40;99.90
34099;DHT22;20374;49.474;10.944;2022-12-20T12:37:33;4.40;99.90
34099;DHT22;20374;49.474;10.944;2022-12-20T12:48:12;4.70;99.90
34099;DHT22;20374;49.474;10.944;2022-12-20T12:50:45;4.70;99.90
34099;DHT22;20374;49.474;10.944;2022-12-20T12:53:36;4.80;99.90
34099;DHT22;20374;49.474;10.944;2022-12-20T13:04:55;4.80;99.90
34099;DHT22;20374;49.474;10.944;2022-12-20T13:20:22;4.40;99.90
34099;DHT22;20374;49.474;10.944;2022-12-20T13:23:14;4.40;99.90
34099;DHT22;20374;49.474;10.944;2022-12-20T13:25:50;4.40;99.90
34099;DHT22;20374;49.474;10.944;2022-12-20T13:33:43;4.20;99.90
34099;DHT22;20374;49.474;10.944;2022-12-20T13:43:50;4.20;99.90
34099;DHT22;20374;49.474;10.944;2022-12-20T13:49:26;4.20;99.90
34099;DHT22;20374;49.474;10.944;2022-12-20T13:55:30;4.10;99.90
34099;DHT22;20374;49.474;10.944;2022-12-20T13:57:57;4.10;99.90
34099;DHT22;20374;49.474;10.944;2022-12-20T14:00:28;4.20;99.90
34099;DHT22;20374;49.474;10.944;2022-12-20T14:02:54;4.20;99.90
34099;DHT22;20374;49.474;10.944;2022-12-20T14:05:47;4.20;99.90
34099;DHT22;20374;49.474;10.944;2022-12-20T14:08:16;4.10;99.90
34099;DHT22;20374;49.474;10.944;2022-12-20T14:10:42;4.10;99.90
34099;DHT22;20374;49.474;10.944;2022-12-20T14:13:23;4.10;99.90
34099;DHT22;20374;49.474;10.944;2022-12-20T14:15:50;4.20;99.90
34099;DHT22;20374;49.474;10.944;2022-12-20T14:18:20;4.20;99.90
34099;DHT22;20374;49.474;10.944;2022-12-20T14:21:04;4.10;99.90
34099;DHT22;20374;49.474;10.944;2022-12-20T14:23:38;4.00;99.90
34099;DHT22;20374;49.474;10.944;2022-12-20T14:26:08;4.00;99.90
34099;DHT22;20374;49.474;10.944;2022-12-20T14:28:43;4.00;99.90
34099;DHT22;20374;49.474;10.944;2022-12-20T14:34:05;3.90;99.90
34099;DHT22;20374;49.474;10.944;2022-12-20T14:36:44;4.00;99.90
34099;DHT22;20374;49.474;10.944;2022-12-20T14:39:27;4.00;99.90
34099;DHT22;20374;49.474;10.944;2022-12-20T14:44:37;3.90;99.90
34099;DHT22;20374;49.474;10.944;2022-12-20T14:47:25;4.00;99.90
34099;DHT22;20374;49.474;10.944;2022-12-20T14:49:58;4.10;99.90
34099;DHT22;20374;49.474;10.944;2022-12-20T14:55:13;4.00;99.90
34099;DHT22;20374;49.474;10.944;2022-12-20T15:02:45;3.80;99.90
34099;DHT22;20374;49.474;10.944;2022-12-20T15:08:28;3.80;99.90
34099;DHT22;20374;49.474;10.944;2022-12-20T15:13:38;3.80;99.90
34099;DHT22;20374;49.474;10.944;2022-12-20T15:16:19;3.80;99.90
34099;DHT22;20374;49.474;10.944;2022-12-20T15:18:48;3.80;99.90
34099;DHT22;20374;49.474;10.944;2022-12-20T15:21:43;3.80;99.90
34099;DHT22;20374;49.474;10.944;2022-12-20T15:24:15;3.80;99.90
34099;DHT22;20374;49.474;10.944;2022-12-20T15:26:44;3.70;99.90
34099;DHT22;20374;49.474;10.944;2022-12-20T15:29:16;3.70;99.90
34099;DHT22;20374;49.474;10.944;2022-12-20T15:31:42;3.70;99.90
34099;DHT22;20374;49.474;10.944;2022-12-20T15:34:43;3.60;99.90
34099;DHT22;20374;49.474;10.944;2022-12-20T15:37:13;3.70;99.90
34099;DHT22;20374;49.474;10.944;2022-12-20T15:39:40;3.70;99.90
34099;DHT22;20374;49.474;10.944;2022-12-20T15:42:06;3.70;99.90
34099;DHT22;20374;49.474;10.944;2022-12-20T15:44:32;3.60;99.90
34099;DHT22;20374;49.474;10.944;2022-12-20T15:47:00;3.60;99.90
34099;DHT22;20374;49.474;10.944;2022-12-20T15:49:30;3.60;99.90
34099;DHT22;20374;49.474;10.944;2022-12-20T15:51:57;3.60;99.90
34099;DHT22;20374;49.474;10.944;2022-12-20T15:54:26;3.70;99.90
34099;DHT22;20374;49.474;10.944;2022-12-20T15:57:00;3.60;99.90
34099;DHT22;20374;49.474;10.944;2022-12-20T15:59:32;3.60;99.90
34099;DHT22;20374;49.474;10.944;2022-12-20T16:01:58;3.60;99.90
34099;DHT22;20374;49.474;10.944;2022-12-20T16:04:25;3.50;99.90
34099;DHT22;20374;49.474;10.944;2022-12-20T16:06:53;3.60;99.90
34099;DHT22;20374;49.474;10.944;2022-12-20T16:09:19;3.60;99.90
34099;DHT22;20374;49.474;10.944;2022-12-20T16:11:49;3.60;99.90
34099;DHT22;20374;49.474;10.944;2022-12-20T16:14:16;3.50;99.90
34099;DHT22;20374;49.474;10.944;2022-12-20T16:16:43;3.60;99.90
34099;DHT22;20374;49.474;10.944;2022-12-20T16:19:10;3.60;99.90
34099;DHT22;20374;49.474;10.944;2022-12-20T16:21:54;3.60;99.90
34099;DHT22;20374;49.474;10.944;2022-12-20T16:24:20;3.60;99.90
34099;DHT22;20374;49.474;10.944;2022-12-20T16:26:49;3.60;99.90
34099;DHT22;20374;49.474;10.944;2022-12-20T16:29:16;3.60;99.90
34099;DHT22;20374;49.474;10.944;2022-12-20T16:31:44;3.60;99.90
34099;DHT22;20374;49.474;10.944;2022-12-20T16:34:17;3.50;99.90
34099;DHT22;20374;49.474;10.944;2022-12-20T16:36:43;3.50;99.90
34099;DHT22;20374;49.474;10.944;2022-12-20T16:39:15;3.50;99.90
34099;DHT22;20374;49.474;10.944;2022-12-20T16:41:41;3.40;99.90
34099;DHT22;20374;49.474;10.944;2022-12-20T16:44:15;3.40;99.90
34099;DHT22;20374;49.474;10.944;2022-12-20T16:46:42;3.40;99.90
34099;DHT22;20374;49.474;10.944;2022-12-20T16:49:10;3.30;99.90
34099;DHT22;20374;49.474;10.944;2022-12-20T16:51:42;3.30;99.90
34099;DHT22;20374;49.474;10.944;2022-12-20T16:54:20;3.30;99.90
34099;DHT22;20374;49.474;10.944;2022-12-20T16:56:50;3.10;99.90
34099;DHT22;20374;49.474;10.944;2022-12-20T16:59:21;3.10;99.90
34099;DHT22;20374;49.474;10.944;2022-12-20T17:01:48;3.10;99.90
34099;DHT22;20374;49.474;10.944;2022-12-20T17:04:16;3.10;99.90
34099;DHT22;20374;49.474;10.944;2022-12-20T17:06:43;3.00;99.90
34099;DHT22;20374;49.474;10.944;2022-12-20T17:09:09;3.00;99.90
34099;DHT22;20374;49.474;10.944;2022-12-20T17:11:35;2.90;99.90
34099;DHT22;20374;49.474;10.944;2022-12-20T17:14:02;2.90;99.90
34099;DHT22;20374;49.474;10.944;2022-12-20T17:16:30;2.90;99.90
34099;DHT22;20374;49.474;10.944;2022-12-20T17:18:56;2.90;99.90
34099;DHT22;20374;49.474;10.944;2022-12-20T17:21:28;2.80;99.90
34099;DHT22;20374;49.474;10.944;2022-12-20T17:23:58;2.80;99.90
34099;DHT22;20374;49.474;10.944;2022-12-20T17:26:26;2.80;99.90
34099;DHT22;20374;49.474;10.944;2022-12-20T17:28:53;2.90;99.90
34099;DHT22;20374;49.474;10.944;2022-12-20T17:31:32;2.90;99.90
34099;DHT22;20374;49.474;10.944;2022-12-20T17:34:21;2.90;99.90
34099;DHT22;20374;49.474;10.944;2022-12-20T17:36:49;2.90;99.90
34099;DHT22;20374;49.474;10.944;2022-12-20T17:39:15;2.90;99.90
34099;DHT22;20374;49.474;10.944;2022-12-20T17:41:41;2.90;99.90
34099;DHT22;20374;49.474;10.944;2022-12-20T17:44:21;3.00;99.90
34099;DHT22;20374;49.474;10.944;2022-12-20T17:46:48;3.00;99.90
34099;DHT22;20374;49.474;10.944;2022-12-20T17:49:14;3.00;99.90
34099;DHT22;20374;49.474;10.944;2022-12-20T17:51:41;2.90;99.90
34099;DHT22;20374;49.474;10.944;2022-12-20T17:54:27;2.90;99.90
34099;DHT22;20374;49.474;10.944;2022-12-20T17:56:53;3.00;99.90
34099;DHT22;20374;49.474;10.944;2022-12-20T17:59:19;3.00;99.90
34099;DHT22;20374;49.474;10.944;2022-12-20T18:01:46;3.00;99.90
34099;DHT22;20374;49.474;10.944;2022-12-20T18:04:14;3.00;99.90
34099;DHT22;20374;49.474;10.944;2022-12-20T18:06:41;2.90;99.90
34099;DHT22;20374;49.474;10.944;2022-12-20T18:09:20;2.90;99.90
34099;DHT22;20374;49.474;10.944;2022-12-20T18:11:47;2.90;99.90
34099;DHT22;20374;49.474;10.944;2022-12-20T18:14:13;2.90;99.90